Time;durP1;ratioP1;P1;durP2;ratioP2;P2;SDS_P1;SDS_P2;PMS_P1;PMS_P2;Temp;Humidity;BMP_temperature;BMP_pressure;BME280_temperature;BME280_humidity;BME280_pressure;Samples;Min_cycle;Max_cycle;Signal;HPM_P1;HPM_P2
2021/04/27 00:01:16;;;;;;;5.43;4.15;;;2.90;76.90;;;;;;5065167;28;20378;-79
2021/04/27 00:03:42;;;;;;;6.68;3.90;;;2.90;76.90;;;;;;5051464;28;20035;-79
2021/04/27 00:06:08;;;;;;;7.97;4.38;;;2.80;76.90;;;;;;5059924;28;20119;-79
2021/04/27 00:08:34;;;;;;;11.60;4.72;;;2.80;77.10;;;;;;5060790;28;20036;-77
2021/04/27 00:10:59;;;;;;;10.77;4.53;;;2.80;77.60;;;;;;5044000;28;20040;-79
2021/04/27 00:13:27;;;;;;;13.45;5.03;;;2.80;77.80;;;;;;5065408;28;20036;-79
2021/04/27 00:15:53;;;;;;;13.13;5.05;;;2.80;77.50;;;;;;5066228;28;20033;-79
2021/04/27 00:18:19;;;;;;;9.75;4.28;;;2.80;77.60;;;;;;5050892;28;20749;-79
2021/04/27 00:20:45;;;;;;;7.45;4.22;;;2.80;77.70;;;;;;5061735;28;20051;-77
2021/04/27 00:23:11;;;;;;;9.98;4.68;;;2.80;78.00;;;;;;5048802;28;20036;-78
2021/04/27 00:25:37;;;;;;;8.85;4.35;;;2.80;77.80;;;;;;5064814;28;20051;-79
2021/04/27 00:28:03;;;;;;;8.75;4.63;;;2.80;78.20;;;;;;5058874;28;20531;-79
2021/04/27 00:30:29;;;;;;;16.50;4.88;;;2.80;77.90;;;;;;5060618;28;20044;-79
2021/04/27 00:32:55;;;;;;;7.07;4.57;;;2.70;77.70;;;;;;5064719;28;20491;-78
2021/04/27 00:35:22;;;;;;;8.52;4.13;;;2.70;77.70;;;;;;5080221;28;20043;-79
2021/04/27 00:37:48;;;;;;;9.65;4.60;;;2.70;78.00;;;;;;5076495;28;20047;-78
2021/04/27 00:40:17;;;;;;;11.07;4.60;;;2.70;78.30;;;;;;5050150;28;20046;-79
2021/04/27 00:42:47;;;;;;;13.50;4.45;;;2.70;78.00;;;;;;5053510;28;20058;-78
2021/04/27 00:45:20;;;;;;;8.52;4.47;;;2.60;78.00;;;;;;5065512;28;20050;-79
2021/04/27 00:47:46;;;;;;;9.25;4.50;;;2.60;78.40;;;;;;5073940;28;20032;-79
2021/04/27 00:50:16;;;;;;;12.63;4.97;;;2.50;78.20;;;;;;5064332;28;20029;-79
2021/04/27 00:52:43;;;;;;;10.23;4.80;;;2.50;78.40;;;;;;5073212;28;20093;-78
2021/04/27 00:55:10;;;;;;;12.98;4.97;;;2.50;78.70;;;;;;5078548;28;20085;-79
2021/04/27 00:57:37;;;;;;;10.77;4.68;;;2.50;79.40;;;;;;5078126;28;20129;-79
2021/04/27 01:00:06;;;;;;;9.48;4.68;;;2.50;78.90;;;;;;5068754;28;20068;-79
2021/04/27 01:02:33;;;;;;;10.35;5.07;;;2.50;78.90;;;;;;5078153;28;20040;-79
2021/04/27 01:04:59;;;;;;;12.52;4.88;;;2.50;79.00;;;;;;5079404;28;20521;-77
2021/04/27 01:07:32;;;;;;;11.02;4.88;;;2.50;78.90;;;;;;5067472;28;20047;-77
2021/04/27 01:10:05;;;;;;;13.18;5.00;;;2.50;79.50;;;;;;5057802;28;20036;-77
2021/04/27 01:12:40;;;;;;;10.70;4.55;;;2.50;79.00;;;;;;5060952;28;20313;-77
2021/04/27 01:15:06;;;;;;;10.07;4.68;;;2.40;79.10;;;;;;5063054;28;20032;-78
2021/04/27 01:17:32;;;;;;;9.85;5.10;;;2.40;79.10;;;;;;5068679;28;20043;-78
2021/04/27 01:20:07;;;;;;;11.77;5.07;;;2.40;79.30;;;;;;5068263;28;20051;-79
2021/04/27 01:22:59;;;;;;;13.93;5.10;;;2.40;79.70;;;;;;5072217;28;20502;-79
2021/04/27 01:26:01;;;;;;;7.45;4.65;;;2.30;79.90;;;;;;5071982;28;20043;-76
2021/04/27 01:28:29;;;;;;;16.35;5.72;;;2.30;79.80;;;;;;5063300;28;20439;-79
2021/04/27 01:30:57;;;;;;;11.02;4.70;;;2.30;79.80;;;;;;5043986;28;20055;-79
2021/04/27 01:33:28;;;;;;;11.75;5.10;;;2.30;80.00;;;;;;5072054;28;20214;-80
2021/04/27 01:35:59;;;;;;;12.77;5.53;;;2.30;80.30;;;;;;5072731;28;20032;-79
2021/04/27 01:38:26;;;;;;;11.30;5.70;;;2.20;80.20;;;;;;5073876;28;21199;-80
2021/04/27 01:40:53;;;;;;;12.63;5.50;;;2.20;80.20;;;;;;5078796;28;20048;-79
2021/04/27 01:43:20;;;;;;;12.85;5.30;;;2.20;80.60;;;;;;5053453;28;20036;-80
2021/04/27 01:45:59;;;;;;;10.77;5.60;;;2.30;80.60;;;;;;5076548;28;20025;-79
2021/04/27 01:48:26;;;;;;;12.43;4.70;;;2.20;80.70;;;;;;5079261;28;20101;-79
2021/04/27 01:50:54;;;;;;;10.93;5.72;;;2.10;81.20;;;;;;5077701;28;20119;-78
2021/04/27 01:53:21;;;;;;;10.50;5.40;;;2.10;80.80;;;;;;5078355;28;20149;-80
2021/04/27 01:55:48;;;;;;;16.45;5.57;;;2.10;81.30;;;;;;5068767;28;20376;-80
2021/04/27 01:58:15;;;;;;;10.25;5.18;;;2.20;81.20;;;;;;5053530;28;20032;-80
2021/04/27 02:00:41;;;;;;;13.30;5.68;;;2.10;81.30;;;;;;5070895;28;20099;-80
2021/04/27 02:03:07;;;;;;;10.23;5.43;;;2.10;81.40;;;;;;5064241;28;20411;-81
2021/04/27 02:05:33;;;;;;;16.30;5.25;;;2.10;81.30;;;;;;5065463;28;20196;-79
2021/04/27 02:08:00;;;;;;;15.27;5.07;;;2.10;81.40;;;;;;5067241;28;20028;-81
2021/04/27 02:10:26;;;;;;;14.38;5.68;;;2.10;81.30;;;;;;5064388;28;20048;-80
2021/04/27 02:12:56;;;;;;;11.38;6.43;;;2.10;81.30;;;;;;5066894;28;20045;-82
2021/04/27 02:15:24;;;;;;;10.18;5.88;;;2.00;81.30;;;;;;5094678;27;20050;-79
2021/04/27 02:18:08;;;;;;;10.77;5.38;;;2.00;81.60;;;;;;5020786;28;20043;-80
2021/04/27 02:20:34;;;;;;;11.15;5.78;;;2.00;81.90;;;;;;5071400;28;20028;-80
2021/04/27 02:23:02;;;;;;;11.70;6.03;;;2.00;81.60;;;;;;5065890;28;20044;-79
2021/04/27 02:25:29;;;;;;;11.05;5.68;;;2.00;81.80;;;;;;5055505;28;20064;-79
2021/04/27 02:27:55;;;;;;;15.15;6.00;;;1.90;82.60;;;;;;5071483;28;20094;-81
2021/04/27 02:30:23;;;;;;;13.80;6.35;;;2.00;82.30;;;;;;5067153;28;20032;-78
2021/04/27 02:32:51;;;;;;;17.02;7.07;;;1.90;82.40;;;;;;5047275;28;20044;-80
2021/04/27 02:35:19;;;;;;;9.75;5.70;;;1.90;82.40;;;;;;5067855;28;20031;-80
2021/04/27 02:37:47;;;;;;;10.45;5.93;;;1.90;82.50;;;;;;5064414;28;20040;-79
2021/04/27 02:40:19;;;;;;;13.10;6.45;;;1.90;82.70;;;;;;5068384;28;20040;-80
2021/04/27 02:42:49;;;;;;;10.27;6.65;;;1.90;82.50;;;;;;5072633;28;20036;-81
2021/04/27 02:45:15;;;;;;;17.35;6.53;;;1.80;83.00;;;;;;5062765;28;20040;-79
2021/04/27 02:47:41;;;;;;;10.15;6.20;;;1.80;83.40;;;;;;5080791;28;20059;-79
2021/04/27 02:50:08;;;;;;;11.25;5.53;;;1.80;82.90;;;;;;5086115;28;20037;-79
2021/04/27 02:52:34;;;;;;;11.68;7.07;;;1.70;83.00;;;;;;5077690;28;20036;-81
2021/04/27 02:55:00;;;;;;;13.90;6.60;;;1.80;83.20;;;;;;5066006;28;20033;-81
2021/04/27 02:57:26;;;;;;;17.50;7.03;;;1.70;83.10;;;;;;5066554;28;20631;-80
2021/04/27 02:59:52;;;;;;;11.70;6.20;;;1.70;83.30;;;;;;5062256;28;20115;-78
2021/04/27 03:02:18;;;;;;;13.60;6.78;;;1.60;83.30;;;;;;5063618;28;20117;-79
2021/04/27 03:04:44;;;;;;;13.50;6.35;;;1.60;83.50;;;;;;5061914;28;20028;-79
2021/04/27 03:07:09;;;;;;;14.80;6.85;;;1.60;84.40;;;;;;5060348;28;20032;-79
2021/04/27 03:09:35;;;;;;;12.32;7.25;;;1.50;83.70;;;;;;5064736;28;20085;-80
2021/04/27 03:12:02;;;;;;;15.85;6.68;;;1.50;84.00;;;;;;5082022;28;20045;-81
2021/04/27 03:14:27;;;;;;;14.23;6.90;;;1.40;84.00;;;;;;5065777;28;20041;-79
2021/04/27 03:16:53;;;;;;;15.10;7.15;;;1.40;84.10;;;;;;5082387;28;20350;-79
2021/04/27 03:19:19;;;;;;;16.10;6.95;;;1.40;84.20;;;;;;5068431;28;20032;-81
2021/04/27 03:21:45;;;;;;;14.27;6.85;;;1.40;84.50;;;;;;5079696;28;20097;-79
2021/04/27 03:24:11;;;;;;;11.98;7.30;;;1.30;84.60;;;;;;5070997;28;20045;-78
2021/04/27 03:26:37;;;;;;;12.07;7.18;;;1.30;84.60;;;;;;5063101;28;20043;-78
2021/04/27 03:29:04;;;;;;;19.23;7.50;;;1.30;84.70;;;;;;5067911;28;20437;-80
2021/04/27 03:31:32;;;;;;;16.70;8.05;;;1.20;85.00;;;;;;5049273;28;20040;-81
2021/04/27 03:33:58;;;;;;;13.25;7.20;;;1.20;85.50;;;;;;5072480;28;20048;-81
2021/04/27 03:36:25;;;;;;;14.25;7.85;;;1.20;85.20;;;;;;5078056;28;20039;-79
2021/04/27 03:38:51;;;;;;;15.77;7.40;;;1.20;85.00;;;;;;5078471;28;20028;-80
2021/04/27 03:41:17;;;;;;;13.65;7.28;;;1.10;85.10;;;;;;5077522;28;20034;-79
2021/04/27 03:43:42;;;;;;;13.70;8.00;;;1.10;85.30;;;;;;5062109;28;20028;-79
2021/04/27 03:46:08;;;;;;;13.55;7.80;;;1.10;85.50;;;;;;5098283;27;20032;-78
2021/04/27 03:48:34;;;;;;;19.90;7.90;;;1.00;85.60;;;;;;5080659;28;20063;-79
2021/04/27 03:51:00;;;;;;;13.77;8.57;;;1.00;85.60;;;;;;5078741;28;20032;-79
2021/04/27 03:53:27;;;;;;;16.58;8.00;;;0.90;85.80;;;;;;5070615;28;20024;-81
2021/04/27 03:55:53;;;;;;;15.00;7.85;;;0.90;85.80;;;;;;5076405;28;20445;-79
2021/04/27 03:58:19;;;;;;;13.20;8.32;;;0.90;85.90;;;;;;5049809;28;20186;-79
2021/04/27 04:00:46;;;;;;;17.10;8.02;;;0.90;85.90;;;;;;5073270;28;20517;-79
2021/04/27 04:03:11;;;;;;;16.45;8.82;;;0.90;86.00;;;;;;5075232;28;20043;-79
2021/04/27 04:05:37;;;;;;;20.33;9.18;;;0.80;86.10;;;;;;5081463;28;20040;-79
2021/04/27 04:08:03;;;;;;;18.20;8.65;;;0.80;86.10;;;;;;5073795;28;20025;-79
2021/04/27 04:10:29;;;;;;;17.75;8.80;;;0.80;86.20;;;;;;5087026;28;20028;-80
2021/04/27 04:12:55;;;;;;;17.45;9.60;;;0.70;86.30;;;;;;5067930;28;20036;-82
2021/04/27 04:15:22;;;;;;;15.48;8.95;;;0.70;86.50;;;;;;5066856;28;20059;-78
2021/04/27 04:17:48;;;;;;;16.42;9.07;;;0.70;86.80;;;;;;5065142;28;20694;-81
2021/04/27 04:20:20;;;;;;;14.18;7.75;;;0.70;86.90;;;;;;5065302;28;20036;-80
2021/04/27 04:22:48;;;;;;;19.88;8.98;;;0.70;86.80;;;;;;5066434;28;20182;-80
2021/04/27 04:25:16;;;;;;;15.02;8.70;;;0.70;87.10;;;;;;5065088;28;20043;-79
2021/04/27 04:27:42;;;;;;;18.70;9.05;;;0.70;86.90;;;;;;5063716;28;20041;-81
2021/04/27 04:30:18;;;;;;;19.40;9.20;;;0.70;86.90;;;;;;5065056;28;20036;-80
2021/04/27 04:32:44;;;;;;;20.50;8.68;;;0.70;87.00;;;;;;5074260;28;20499;-79
2021/04/27 04:35:12;;;;;;;14.77;8.10;;;0.70;87.00;;;;;;5063453;28;20710;-80
2021/04/27 04:37:38;;;;;;;17.75;8.68;;;0.70;87.10;;;;;;5065385;28;20040;-79
2021/04/27 04:40:09;;;;;;;17.23;8.32;;;0.70;87.00;;;;;;5065956;28;20057;-81
2021/04/27 04:42:35;;;;;;;11.60;7.65;;;0.70;87.20;;;;;;5067188;28;20043;-82
2021/04/27 04:45:02;;;;;;;17.65;8.45;;;0.70;87.10;;;;;;5064148;28;20389;-81
2021/04/27 04:47:28;;;;;;;13.45;8.63;;;0.70;87.10;;;;;;5057884;28;20033;-79
2021/04/27 04:49:54;;;;;;;14.95;8.63;;;0.80;87.20;;;;;;5070808;28;20044;-79
2021/04/27 04:52:21;;;;;;;16.80;10.00;;;0.80;86.90;;;;;;5072609;28;20036;-79
2021/04/27 04:54:47;;;;;;;15.02;8.50;;;0.80;87.10;;;;;;5064594;28;20435;-79
2021/04/27 04:57:12;;;;;;;15.25;9.38;;;0.80;87.20;;;;;;5064229;28;20032;-79
2021/04/27 04:59:38;;;;;;;15.35;8.15;;;0.80;87.10;;;;;;5056391;28;20043;-82
2021/04/27 05:02:04;;;;;;;17.63;8.52;;;0.80;87.20;;;;;;5043467;28;20040;-81
2021/04/27 05:04:30;;;;;;;16.25;8.07;;;1.00;87.30;;;;;;5059993;28;20274;-79
2021/04/27 05:07:04;;;;;;;13.90;7.40;;;0.90;87.20;;;;;;5056947;28;20115;-81
2021/04/27 05:09:30;;;;;;;13.57;7.68;;;1.00;87.30;;;;;;5047497;28;20109;-83
2021/04/27 05:12:00;;;;;;;17.70;7.47;;;1.00;87.30;;;;;;5048463;28;20097;-84
2021/04/27 05:14:26;;;;;;;10.20;6.72;;;1.10;87.00;;;;;;5053509;28;20043;-80
2021/04/27 05:16:58;;;;;;;15.68;7.63;;;1.20;86.90;;;;;;5052464;28;21237;-82
2021/04/27 05:19:24;;;;;;;12.95;6.78;;;1.30;86.50;;;;;;5052377;28;20051;-81
2021/04/27 05:21:49;;;;;;;10.65;6.05;;;1.30;86.20;;;;;;5051589;28;20047;-81
2021/04/27 05:24:16;;;;;;;14.20;6.45;;;1.50;86.00;;;;;;5060710;28;20466;-83
2021/04/27 05:26:42;;;;;;;13.05;6.13;;;1.60;85.20;;;;;;5051634;28;20040;-82
2021/04/27 05:29:09;;;;;;;10.60;6.13;;;1.60;85.30;;;;;;5052282;28;21553;-81
2021/04/27 05:31:35;;;;;;;11.05;6.13;;;1.70;85.00;;;;;;5055398;28;20054;-82
2021/04/27 05:34:01;;;;;;;11.50;5.55;;;1.80;84.70;;;;;;5037548;28;20056;-79
2021/04/27 05:36:26;;;;;;;10.32;5.28;;;1.90;84.50;;;;;;5049832;28;20795;-83
2021/04/27 05:38:53;;;;;;;8.73;5.28;;;1.90;84.30;;;;;;5036325;28;20031;-81
2021/04/27 05:41:19;;;;;;;9.75;5.28;;;2.00;83.90;;;;;;5053161;28;20099;-81
2021/04/27 05:43:45;;;;;;;6.30;4.50;;;2.20;83.60;;;;;;5051063;28;20483;-82
2021/04/27 05:46:10;;;;;;;8.77;5.18;;;2.30;83.30;;;;;;5051224;28;20032;-83
2021/04/27 05:48:36;;;;;;;9.63;4.30;;;2.40;83.00;;;;;;5039132;28;20028;-83
2021/04/27 05:51:02;;;;;;;13.45;5.28;;;2.50;82.60;;;;;;5051549;28;20410;-84
2021/04/27 05:53:28;;;;;;;7.70;4.70;;;2.60;82.30;;;;;;5043107;28;20147;-81
2021/04/27 05:55:54;;;;;;;7.47;4.68;;;2.70;81.90;;;;;;5050743;28;20494;-81
2021/04/27 05:58:20;;;;;;;7.28;4.68;;;2.90;81.70;;;;;;5035491;28;20573;-84
2021/04/27 06:00:46;;;;;;;6.38;3.97;;;3.00;81.10;;;;;;5058871;28;20040;-82
2021/04/27 06:03:11;;;;;;;6.93;4.32;;;3.10;80.40;;;;;;5049102;28;20040;-80
2021/04/27 06:05:37;;;;;;;8.52;4.30;;;3.20;80.30;;;;;;5052530;28;20420;-79
2021/04/27 06:08:03;;;;;;;6.93;3.90;;;3.40;79.90;;;;;;5065095;28;20031;-79
2021/04/27 06:10:29;;;;;;;6.40;4.43;;;3.50;79.70;;;;;;5059567;28;20039;-79
2021/04/27 06:12:54;;;;;;;5.47;4.15;;;3.60;79.10;;;;;;5100639;28;20032;-80
2021/04/27 06:15:20;;;;;;;7.70;3.90;;;3.80;78.90;;;;;;5072409;28;20094;-80
2021/04/27 06:17:46;;;;;;;5.22;3.30;;;3.80;79.20;;;;;;5054283;28;20040;-78
2021/04/27 06:20:13;;;;;;;8.07;3.42;;;4.00;78.40;;;;;;5050179;28;20035;-82
2021/04/27 06:22:39;;;;;;;6.93;3.25;;;4.10;77.40;;;;;;5045214;28;20078;-82
2021/04/27 06:25:08;;;;;;;6.63;3.95;;;4.20;77.00;;;;;;5060433;28;20032;-80
2021/04/27 06:27:35;;;;;;;10.77;3.70;;;4.30;76.40;;;;;;5054493;28;20050;-82
2021/04/27 06:30:04;;;;;;;5.43;3.38;;;4.50;76.10;;;;;;5066717;28;21227;-82
2021/04/27 06:32:33;;;;;;;6.85;3.42;;;4.60;75.50;;;;;;5051634;28;20323;-81
2021/04/27 06:34:59;;;;;;;5.38;2.90;;;4.70;75.20;;;;;;5092545;28;20201;-80
2021/04/27 06:37:26;;;;;;;5.97;3.45;;;4.80;74.90;;;;;;5065117;28;20028;-79
2021/04/27 06:39:52;;;;;;;9.45;3.20;;;4.90;74.60;;;;;;5072114;28;20429;-80
2021/04/27 06:42:18;;;;;;;6.82;3.33;;;5.10;74.10;;;;;;5069041;28;20400;-79
2021/04/27 06:44:44;;;;;;;6.53;3.25;;;5.20;73.80;;;;;;5063507;28;20040;-80
2021/04/27 06:47:10;;;;;;;5.30;2.80;;;5.30;73.50;;;;;;5065756;28;20665;-80
2021/04/27 06:49:36;;;;;;;4.95;2.80;;;5.40;73.30;;;;;;5070175;28;20051;-82
2021/04/27 06:52:04;;;;;;;5.28;3.20;;;5.60;72.80;;;;;;5072500;28;20089;-79
2021/04/27 06:54:30;;;;;;;6.35;2.75;;;5.70;72.10;;;;;;5058920;28;20164;-79
2021/04/27 06:56:56;;;;;;;4.55;2.75;;;5.90;70.60;;;;;;5063074;28;20051;-79
2021/04/27 06:59:25;;;;;;;7.75;2.80;;;6.10;70.20;;;;;;5061373;28;20646;-80
2021/04/27 07:01:50;;;;;;;15.90;2.78;;;6.20;70.00;;;;;;5070587;28;20477;-79
2021/04/27 07:04:16;;;;;;;4.30;2.30;;;6.30;68.20;;;;;;5078101;28;20032;-81
2021/04/27 07:06:42;;;;;;;7.75;2.70;;;6.50;67.00;;;;;;5071299;28;20426;-84
2021/04/27 07:09:08;;;;;;;6.85;2.75;;;6.70;65.90;;;;;;5069959;28;20028;-83
2021/04/27 07:11:34;;;;;;;5.97;2.40;;;6.80;64.60;;;;;;5071314;28;20059;-81
2021/04/27 07:13:59;;;;;;;5.10;2.42;;;6.90;63.60;;;;;;5081894;28;20544;-79
2021/04/27 07:16:25;;;;;;;8.25;2.60;;;7.10;63.70;;;;;;5087986;28;20082;-82
2021/04/27 07:18:51;;;;;;;7.43;2.25;;;7.20;63.10;;;;;;5062105;28;20471;-84
2021/04/27 07:21:19;;;;;;;3.53;2.55;;;7.40;62.70;;;;;;5077250;28;20044;-83
2021/04/27 07:23:46;;;;;;;5.18;2.40;;;7.50;61.60;;;;;;5065457;28;20132;-84
2021/04/27 07:26:12;;;;;;;4.88;2.25;;;7.70;60.70;;;;;;5076990;28;20138;-80
2021/04/27 07:28:38;;;;;;;7.78;2.45;;;7.80;60.30;;;;;;5073297;28;20521;-80
2021/04/27 07:31:04;;;;;;;4.75;2.40;;;8.00;59.90;;;;;;5074844;28;20032;-81
2021/04/27 07:33:30;;;;;;;6.65;2.70;;;8.10;59.00;;;;;;5091157;27;20438;-81
2021/04/27 07:35:56;;;;;;;6.85;2.45;;;8.20;59.20;;;;;;5078861;28;20040;-80
2021/04/27 07:38:23;;;;;;;3.65;2.30;;;8.40;59.00;;;;;;5072931;28;20028;-83
2021/04/27 07:40:49;;;;;;;5.90;2.50;;;8.50;58.70;;;;;;5074763;28;20042;-83
2021/04/27 07:43:15;;;;;;;5.32;2.38;;;8.70;58.00;;;;;;5074628;28;20123;-79
2021/04/27 07:45:42;;;;;;;4.85;2.38;;;8.80;57.90;;;;;;5056494;28;20028;-77
2021/04/27 07:48:09;;;;;;;4.53;2.40;;;9.00;57.30;;;;;;5064078;28;20028;-84
2021/04/27 07:50:35;;;;;;;6.63;2.83;;;9.10;55.20;;;;;;5067653;28;20036;-81
2021/04/27 07:53:03;;;;;;;6.78;2.40;;;9.20;55.80;;;;;;5064962;28;20094;-82
2021/04/27 07:55:29;;;;;;;6.50;2.65;;;9.30;55.40;;;;;;5078801;28;20131;-83
2021/04/27 07:57:55;;;;;;;6.28;2.58;;;9.40;55.70;;;;;;5053471;28;20572;-80
2021/04/27 08:00:22;;;;;;;4.68;2.67;;;9.50;54.90;;;;;;5099036;27;20718;-79
2021/04/27 08:02:49;;;;;;;8.98;2.65;;;9.60;55.40;;;;;;5071077;28;20040;-85
2021/04/27 08:05:16;;;;;;;5.78;2.88;;;9.80;54.80;;;;;;5060829;28;20032;-83
2021/04/27 08:07:41;;;;;;;5.93;2.58;;;9.90;55.00;;;;;;5049105;28;20040;-79
2021/04/27 08:10:12;;;;;;;6.43;3.13;;;10.00;55.00;;;;;;5063539;28;20485;-81
2021/04/27 08:12:38;;;;;;;4.47;2.58;;;10.10;54.30;;;;;;5062409;28;20036;-81
2021/04/27 08:15:05;;;;;;;6.18;3.05;;;10.10;53.70;;;;;;5092531;28;20554;-80
2021/04/27 08:17:30;;;;;;;8.23;3.13;;;10.20;53.30;;;;;;5067726;28;20036;-82
2021/04/27 08:19:57;;;;;;;5.78;2.65;;;10.20;51.90;;;;;;5084360;28;20326;-80
2021/04/27 08:22:23;;;;;;;5.20;2.90;;;10.30;51.80;;;;;;5067975;28;20780;-80
2021/04/27 08:24:49;;;;;;;6.68;2.70;;;10.50;52.30;;;;;;5078148;28;20036;-82
2021/04/27 08:27:16;;;;;;;7.65;2.97;;;10.60;51.30;;;;;;5074562;28;20051;-80
2021/04/27 08:29:43;;;;;;;3.55;2.47;;;10.60;50.80;;;;;;5078875;28;20045;-81
2021/04/27 08:32:10;;;;;;;3.30;2.53;;;10.70;50.80;;;;;;5083088;28;20043;-82
2021/04/27 08:34:36;;;;;;;3.78;2.53;;;10.70;50.00;;;;;;5081746;28;20032;-80
2021/04/27 08:37:02;;;;;;;7.70;2.65;;;10.80;49.50;;;;;;5068005;28;20039;-82
2021/04/27 08:39:29;;;;;;;9.27;2.33;;;10.80;49.50;;;;;;5062830;28;20436;-80
2021/04/27 08:41:55;;;;;;;6.03;2.40;;;10.90;49.30;;;;;;5067712;28;20040;-81
2021/04/27 08:44:21;;;;;;;4.13;2.40;;;11.10;48.70;;;;;;5075840;28;20043;-82
2021/04/27 08:46:48;;;;;;;2.90;2.20;;;11.20;48.40;;;;;;5064421;28;20047;-81
2021/04/27 08:49:15;;;;;;;5.45;2.47;;;11.20;47.30;;;;;;5085539;28;20530;-83
2021/04/27 08:51:41;;;;;;;4.30;2.50;;;11.30;47.20;;;;;;5081287;28;20357;-82
2021/04/27 08:54:07;;;;;;;6.20;2.50;;;11.30;45.30;;;;;;5080537;28;20089;-83
2021/04/27 08:56:33;;;;;;;5.32;2.67;;;11.40;45.20;;;;;;5079085;28;20505;-78
2021/04/27 08:59:00;;;;;;;4.88;2.50;;;11.40;45.50;;;;;;5086194;28;20076;-81
2021/04/27 09:01:26;;;;;;;5.75;2.58;;;11.50;45.00;;;;;;5079994;28;20032;-80
2021/04/27 09:03:58;;;;;;;7.07;2.47;;;11.60;44.60;;;;;;5071528;28;20040;-79
2021/04/27 09:06:25;;;;;;;8.25;2.38;;;11.80;45.20;;;;;;5084176;28;20043;-79
2021/04/27 09:08:53;;;;;;;4.57;2.75;;;11.90;44.80;;;;;;5077449;28;20031;-78
2021/04/27 09:11:35;;;;;;;5.22;2.33;;;12.00;43.30;;;;;;5083023;28;20048;-78
2021/04/27 09:14:11;;;;;;;7.28;2.60;;;12.00;42.00;;;;;;5078450;28;20067;-79
2021/04/27 09:16:43;;;;;;;3.65;2.47;;;12.00;41.40;;;;;;5081004;28;20035;-81
2021/04/27 09:19:09;;;;;;;6.55;2.53;;;12.00;42.20;;;;;;5079651;28;20038;-78
2021/04/27 09:21:38;;;;;;;7.65;2.25;;;12.00;42.40;;;;;;5067049;28;20510;-79
2021/04/27 09:24:16;;;;;;;6.90;2.20;;;12.10;43.20;;;;;;5065115;28;20037;-78
2021/04/27 09:26:43;;;;;;;5.72;2.80;;;12.30;42.10;;;;;;5095946;27;20118;-78
2021/04/27 09:29:09;;;;;;;10.70;2.30;;;12.50;42.90;;;;;;5068219;28;20044;-81
2021/04/27 09:31:41;;;;;;;3.38;2.20;;;12.60;42.00;;;;;;5068942;28;20115;-79
2021/04/27 09:34:17;;;;;;;6.20;2.70;;;12.60;41.40;;;;;;5061933;28;20036;-80
2021/04/27 09:36:43;;;;;;;10.07;2.50;;;12.70;41.10;;;;;;5069413;28;20220;-79
2021/04/27 09:39:09;;;;;;;5.53;2.72;;;12.70;42.40;;;;;;5046564;28;20509;-80
2021/04/27 09:41:35;;;;;;;6.90;3.00;;;12.80;42.50;;;;;;5101924;27;20182;-79
2021/04/27 09:44:01;;;;;;;3.70;2.42;;;12.90;41.40;;;;;;5094090;27;20568;-78
2021/04/27 09:46:27;;;;;;;5.65;2.22;;;12.90;40.50;;;;;;5049706;28;20028;-79
2021/04/27 09:48:55;;;;;;;4.88;2.83;;;13.00;40.90;;;;;;5067024;28;20036;-78
2021/04/27 09:51:23;;;;;;;5.03;2.58;;;13.00;41.10;;;;;;5062082;28;20043;-80
2021/04/27 09:53:51;;;;;;;6.00;2.33;;;13.00;40.60;;;;;;5083326;28;20079;-78
2021/04/27 09:56:39;;;;;;;4.72;2.75;;;13.10;40.80;;;;;;5068701;28;20036;-80
2021/04/27 09:59:15;;;;;;;9.23;2.47;;;13.10;40.30;;;;;;5071328;28;20119;-79
2021/04/27 10:01:46;;;;;;;5.32;2.40;;;13.20;40.40;;;;;;5082090;28;20059;-80
2021/04/27 10:04:12;;;;;;;6.70;2.50;;;13.30;40.20;;;;;;5075668;28;20029;-79
2021/04/27 10:06:42;;;;;;;7.45;2.70;;;13.40;40.40;;;;;;5106928;27;20037;-78
2021/04/27 10:09:09;;;;;;;6.03;2.45;;;13.50;41.00;;;;;;5058297;28;20033;-80
2021/04/27 10:11:35;;;;;;;9.98;2.50;;;13.60;40.20;;;;;;5070318;28;20432;-80
2021/04/27 10:14:03;;;;;;;10.02;2.50;;;13.60;40.60;;;;;;5078932;28;20036;-81
2021/04/27 10:16:29;;;;;;;5.70;2.85;;;13.70;40.30;;;;;;5082178;28;20444;-80
2021/04/27 10:18:56;;;;;;;4.63;2.40;;;13.80;39.70;;;;;;5077124;28;20028;-80
2021/04/27 10:21:22;;;;;;;4.68;3.00;;;13.80;38.70;;;;;;5069850;28;20490;-82
2021/04/27 10:23:50;;;;;;;5.97;2.65;;;13.90;38.10;;;;;;5067203;28;20325;-79
2021/04/27 10:26:24;;;;;;;9.40;2.67;;;13.90;37.90;;;;;;5103266;27;20040;-78
2021/04/27 10:29:02;;;;;;;6.63;2.70;;;13.90;38.40;;;;;;5074020;28;20037;-80
2021/04/27 10:31:31;;;;;;;6.47;2.35;;;14.00;37.70;;;;;;5082234;28;20395;-79
2021/04/27 10:34:09;;;;;;;5.82;2.20;;;14.00;38.10;;;;;;5085749;28;20505;-78
2021/04/27 10:36:59;;;;;;;4.05;2.30;;;14.00;38.10;;;;;;5075009;28;20032;-79
2021/04/27 10:39:38;;;;;;;6.75;2.03;;;14.10;37.90;;;;;;5063612;28;20117;-81
2021/04/27 10:42:22;;;;;;;3.95;2.10;;;14.20;37.70;;;;;;5067023;28;20059;-82
2021/04/27 10:44:54;;;;;;;2.67;2.00;;;14.30;38.00;;;;;;5071493;28;20119;-80
2021/04/27 10:47:21;;;;;;;3.97;2.20;;;14.30;37.00;;;;;;5076971;28;20102;-82
2021/04/27 10:49:48;;;;;;;4.85;2.47;;;14.30;36.00;;;;;;5078264;28;20072;-79
2021/04/27 10:52:35;;;;;;;3.70;2.25;;;14.30;35.70;;;;;;5076645;28;20047;-81
2021/04/27 10:55:25;;;;;;;4.78;2.35;;;14.30;35.70;;;;;;5074449;28;20441;-79
2021/04/27 10:57:52;;;;;;;4.07;2.28;;;14.40;37.00;;;;;;5086423;28;20024;-82
2021/04/27 11:00:39;;;;;;;6.80;2.40;;;14.50;37.50;;;;;;5078925;28;20043;-79
2021/04/27 11:03:12;;;;;;;5.30;2.50;;;14.50;36.20;;;;;;5077701;28;20116;-80
2021/04/27 11:05:50;;;;;;;4.03;2.20;;;14.60;36.90;;;;;;5080074;28;20032;-81
2021/04/27 11:08:16;;;;;;;4.38;2.45;;;14.60;36.30;;;;;;5073514;28;20028;-80
2021/04/27 11:10:43;;;;;;;4.53;2.28;;;14.70;37.40;;;;;;5083981;28;20039;-80
2021/04/27 11:13:10;;;;;;;5.25;2.60;;;14.80;37.80;;;;;;5071389;28;20230;-79
2021/04/27 11:15:38;;;;;;;9.48;2.80;;;14.80;36.40;;;;;;5078445;28;20070;-79
2021/04/27 11:18:11;;;;;;;5.82;2.70;;;14.90;36.20;;;;;;5079186;28;20028;-79
2021/04/27 11:20:47;;;;;;;5.68;2.70;;;14.90;36.60;;;;;;5061224;28;21773;-79
2021/04/27 11:23:36;;;;;;;3.53;2.40;;;15.00;36.10;;;;;;5066166;28;20040;-79
2021/04/27 11:26:23;;;;;;;3.50;2.63;;;15.10;36.20;;;;;;5065092;28;20287;-82
2021/04/27 11:29:15;;;;;;;7.68;2.85;;;15.10;35.80;;;;;;5062349;28;20035;-80
2021/04/27 11:32:06;;;;;;;7.00;2.60;;;15.10;35.10;;;;;;5068416;28;20102;-80
2021/04/27 11:34:55;;;;;;;6.70;2.63;;;15.10;33.30;;;;;;5097199;27;20202;-80
2021/04/27 11:37:47;;;;;;;7.15;2.70;;;15.00;33.70;;;;;;5066746;28;20123;-81
2021/04/27 11:40:19;;;;;;;3.42;2.55;;;15.00;34.40;;;;;;5064688;28;20493;-81
2021/04/27 11:43:10;;;;;;;2.63;2.10;;;15.10;34.90;;;;;;5076266;28;20043;-81
2021/04/27 11:45:40;;;;;;;6.40;2.33;;;15.20;34.00;;;;;;5080910;28;20047;-81
2021/04/27 11:48:19;;;;;;;7.70;2.38;;;15.30;34.00;;;;;;5082173;28;20066;-80
2021/04/27 11:50:47;;;;;;;8.18;2.63;;;15.20;32.80;;;;;;5084097;28;20637;-79
2021/04/27 11:53:16;;;;;;;3.53;2.30;;;15.20;32.30;;;;;;5082071;28;20040;-80
2021/04/27 11:55:48;;;;;;;2.85;2.50;;;15.10;33.60;;;;;;5078180;28;20063;-81
2021/04/27 11:58:15;;;;;;;6.95;2.70;;;15.10;33.40;;;;;;5060535;28;20078;-80
2021/04/27 12:00:53;;;;;;;7.75;3.28;;;15.20;31.90;;;;;;5082098;28;20127;-81
2021/04/27 12:03:59;;;;;;;5.22;2.53;;;15.00;30.90;;;;;;5066243;28;20044;-80
2021/04/27 12:06:25;;;;;;;5.32;3.05;;;14.90;32.50;;;;;;5069374;28;20048;-79
2021/04/27 12:08:55;;;;;;;5.28;3.03;;;15.00;32.70;;;;;;5091681;27;20822;-80
2021/04/27 12:11:30;;;;;;;3.75;2.70;;;15.20;32.10;;;;;;5106150;27;20171;-80
2021/04/27 12:13:57;;;;;;;9.95;3.28;;;15.40;32.50;;;;;;5072997;28;20036;-81
2021/04/27 12:16:26;;;;;;;3.90;3.05;;;15.50;32.20;;;;;;5076945;28;20044;-82
2021/04/27 12:18:56;;;;;;;3.63;2.88;;;15.60;31.60;;;;;;5080573;28;20274;-83
2021/04/27 12:21:31;;;;;;;6.25;3.30;;;15.70;31.30;;;;;;5082268;28;20583;-81
2021/04/27 12:24:07;;;;;;;5.00;3.22;;;15.80;31.10;;;;;;5073268;28;20033;-81
2021/04/27 12:26:34;;;;;;;5.97;3.10;;;15.80;30.60;;;;;;5076780;28;20041;-81
2021/04/27 12:29:01;;;;;;;7.10;3.28;;;15.90;31.70;;;;;;5055709;28;20130;-81
2021/04/27 12:31:28;;;;;;;6.32;3.65;;;16.00;31.90;;;;;;5067696;28;20036;-80
2021/04/27 12:33:58;;;;;;;8.45;3.60;;;16.10;30.90;;;;;;5062892;28;20154;-80
2021/04/27 12:36:51;;;;;;;6.75;3.47;;;16.10;30.70;;;;;;5059093;28;20040;-80
2021/04/27 12:39:22;;;;;;;4.47;2.90;;;16.20;31.40;;;;;;5065215;28;20044;-80
2021/04/27 12:41:50;;;;;;;6.53;3.75;;;16.30;31.40;;;;;;5064664;28;20043;-80
2021/04/27 12:44:37;;;;;;;7.28;3.80;;;16.40;30.40;;;;;;5065585;28;20029;-81
2021/04/27 12:47:18;;;;;;;6.18;3.28;;;16.40;29.70;;;;;;5068578;28;20097;-80
2021/04/27 12:49:54;;;;;;;8.25;3.65;;;16.40;30.70;;;;;;5073957;28;20255;-79
2021/04/27 12:52:19;;;;;;;5.65;3.30;;;16.30;30.00;;;;;;5103524;27;20059;-80
2021/04/27 12:54:59;;;;;;;4.38;3.00;;;16.30;30.00;;;;;;5063103;28;20036;-81
2021/04/27 12:57:26;;;;;;;5.40;3.60;;;16.30;28.90;;;;;;5064494;28;20075;-81